TAF KHPN
AMD KHPN 090844Z 0909/1006 31010G18KT P6SM FEW045 FM091500 31012G20KT P6SM FEW250 FM092100 28005KT P6SM BKN250 FM100000 VRB03KT P6SM BKN100 AMD NOT SKED=
METAR KHPN
WC KHPN
WS KHPN
WV KHPN